sensor_id;sensor_type;location;lat;lon;timestamp;temperature;humidity
20047;DHT22;45339;49.838;18.904;2022-11-20T00:16:10;-2.40;1.00
20047;DHT22;45339;49.838;18.904;2022-11-20T00:46:29;-2.10;99.90
20047;DHT22;45339;49.838;18.904;2022-11-20T01:16:47;-2.50;1.00
20047;DHT22;45339;49.838;18.904;2022-11-20T01:47:05;-3.00;1.00
20047;DHT22;45339;49.838;18.904;2022-11-20T02:17:17;-3.40;1.00
20047;DHT22;45339;49.838;18.904;2022-11-20T02:47:32;-3.80;1.00
20047;DHT22;45339;49.838;18.904;2022-11-20T03:17:46;-3.90;99.90
20047;DHT22;45339;49.838;18.904;2022-11-20T03:48:16;-4.10;1.00
20047;DHT22;45339;49.838;18.904;2022-11-20T04:18:32;-4.00;99.90
20047;DHT22;45339;49.838;18.904;2022-11-20T04:48:48;-3.60;1.00
20047;DHT22;45339;49.838;18.904;2022-11-20T05:19:01;-3.30;1.00
20047;DHT22;45339;49.838;18.904;2022-11-20T05:49:10;-3.20;1.00
20047;DHT22;45339;49.838;18.904;2022-11-20T06:19:21;-3.50;1.00
20047;DHT22;45339;49.838;18.904;2022-11-20T06:49:31;-3.80;99.90
20047;DHT22;45339;49.838;18.904;2022-11-20T07:19:42;-3.70;99.90
20047;DHT22;45339;49.838;18.904;2022-11-20T07:49:53;-0.40;1.00
20047;DHT22;45339;49.838;18.904;2022-11-20T08:20:09;-1.50;99.90
20047;DHT22;45339;49.838;18.904;2022-11-20T10:20:12;0.00;1.00
20047;DHT22;45339;49.838;18.904;2022-11-20T10:50:29;1.20;99.90
20047;DHT22;45339;49.838;18.904;2022-11-20T11:20:38;2.20;99.90
20047;DHT22;45339;49.838;18.904;2022-11-20T11:50:52;2.90;99.90
20047;DHT22;45339;49.838;18.904;2022-11-20T12:21:20;2.90;99.90
20047;DHT22;45339;49.838;18.904;2022-11-20T13:22:24;3.70;99.90
20047;DHT22;45339;49.838;18.904;2022-11-20T13:52:44;3.60;99.90
20047;DHT22;45339;49.838;18.904;2022-11-20T14:23:02;2.50;1.00
20047;DHT22;45339;49.838;18.904;2022-11-20T14:53:24;2.20;1.00
20047;DHT22;45339;49.838;18.904;2022-11-20T15:23:33;2.00;47.50
20047;DHT22;45339;49.838;18.904;2022-11-20T15:53:50;1.90;99.90
20047;DHT22;45339;49.838;18.904;2022-11-20T16:24:12;1.90;1.00
20047;DHT22;45339;49.838;18.904;2022-11-20T16:54:26;2.00;1.00
20047;DHT22;45339;49.838;18.904;2022-11-20T17:24:38;2.00;27.80
20047;DHT22;45339;49.838;18.904;2022-11-20T17:54:46;2.20;1.00
20047;DHT22;45339;49.838;18.904;2022-11-20T18:25:00;2.30;1.00
20047;DHT22;45339;49.838;18.904;2022-11-20T18:55:10;2.20;1.00
20047;DHT22;45339;49.838;18.904;2022-11-20T19:25:24;2.20;58.20
20047;DHT22;45339;49.838;18.904;2022-11-20T19:55:41;1.90;1.00
20047;DHT22;45339;49.838;18.904;2022-11-20T20:25:50;1.80;1.00
20047;DHT22;45339;49.838;18.904;2022-11-20T20:56:09;1.90;1.00
20047;DHT22;45339;49.838;18.904;2022-11-20T21:26:20;1.60;1.00
20047;DHT22;45339;49.838;18.904;2022-11-20T21:56:32;1.80;99.90
20047;DHT22;45339;49.838;18.904;2022-11-20T22:26:50;2.10;1.00
20047;DHT22;45339;49.838;18.904;2022-11-20T22:57:05;2.00;1.00
20047;DHT22;45339;49.838;18.904;2022-11-20T23:27:14;2.50;1.00
20047;DHT22;45339;49.838;18.904;2022-11-20T23:57:24;2.20;99.90
